KISO/ISO METAR and TAF weather

Enter ICAO airport designator
Station Type Date Time Source
KISO METAR 2021/05/14 13:56 UTC NOAA

KISO 141356Z 35007KT 10SM CLR 18/05 A3029


Station Type Date Time Source
KISO Decoded METAR 2021/05/14 13:56 UTC NOAA

Kinston, Kinston Regional Jetport at Stallings Field, NC, United States (KISO) 35-20N 077-37W
May 14, 2021 - 09:56 AM EDT / 2021.05.14 1356 UTC
Wind: from the N (350 degrees) at 8 MPH (7 KT):0
Visibility: 10 mile(s):0
Sky conditions: clear
Temperature: 64 F (18 C)
Dew Point: 41 F (5 C)
Relative Humidity: 42%
Pressure (altimeter): 30.29 in. Hg (1025 hPa)
ob: KISO 141356Z 35007KT 10SM CLR 18/05 A3029
cycle: 14

Station Type Date Time Source
KISO TAF 2021/05/14 12:22 UTC NOAA

TAF KISO 141120Z 1412/1512 01004KT P6SM SKC
FM141700 03007KT P6SM SCT060
FM142300 00000KT P6SM SKC
AMD LTD TO CLD VIS AND WIND

Example: see airport list